sensor_id;sensor_type;location;lat;lon;timestamp;pressure;altitude;pressure_sealevel;temperature;humidity
8039;BME280;4062;49.844;8.120;2022-09-23T00:00:15;99594.50;;;17.56;56.69
8039;BME280;4062;49.844;8.120;2022-09-23T00:02:15;99591.84;;;17.56;56.51
8039;BME280;4062;49.844;8.120;2022-09-23T00:04:16;99589.16;;;17.56;56.68
8039;BME280;4062;49.844;8.120;2022-09-23T00:06:20;99586.50;;;17.56;56.57
8039;BME280;4062;49.844;8.120;2022-09-23T00:08:22;99586.50;;;17.56;56.56
8039;BME280;4062;49.844;8.120;2022-09-23T00:10:25;99589.16;;;17.56;56.47
8039;BME280;4062;49.844;8.120;2022-09-23T00:12:26;99577.63;;;17.55;56.63
8039;BME280;4062;49.844;8.120;2022-09-23T00:14:27;99585.66;;;17.55;56.60
8039;BME280;4062;49.844;8.120;2022-09-23T00:16:33;99585.66;;;17.55;56.71
8039;BME280;4062;49.844;8.120;2022-09-23T00:18:34;99580.31;;;17.55;56.43
8039;BME280;4062;49.844;8.120;2022-09-23T00:20:35;99583.81;;;17.56;56.45
8039;BME280;4062;49.844;8.120;2022-09-23T00:22:36;99583.81;;;17.56;56.53
8039;BME280;4062;49.844;8.120;2022-09-23T00:24:37;99583.81;;;17.56;56.66
8039;BME280;4062;49.844;8.120;2022-09-23T00:26:39;99584.72;;;17.56;56.76
8039;BME280;4062;49.844;8.120;2022-09-23T00:28:39;99584.72;;;17.56;56.80
8039;BME280;4062;49.844;8.120;2022-09-23T00:30:40;99582.97;;;17.55;56.72
8039;BME280;4062;49.844;8.120;2022-09-23T00:32:41;99585.66;;;17.55;56.72
8039;BME280;4062;49.844;8.120;2022-09-23T00:34:43;99578.47;;;17.56;56.63
8039;BME280;4062;49.844;8.120;2022-09-23T00:36:44;99583.81;;;17.56;56.40
8039;BME280;4062;49.844;8.120;2022-09-23T00:38:45;99582.97;;;17.55;56.76
8039;BME280;4062;49.844;8.120;2022-09-23T00:40:46;99574.09;;;17.55;56.59
8039;BME280;4062;49.844;8.120;2022-09-23T00:42:48;99574.09;;;17.55;56.75
8039;BME280;4062;49.844;8.120;2022-09-23T00:44:53;99571.44;;;17.55;56.47
8039;BME280;4062;49.844;8.120;2022-09-23T00:46:54;99571.44;;;17.55;56.47
8039;BME280;4062;49.844;8.120;2022-09-23T00:49:25;99571.44;;;17.55;56.59
8039;BME280;4062;49.844;8.120;2022-09-23T00:51:35;99567.88;;;17.54;56.70
8039;BME280;4062;49.844;8.120;2022-09-23T00:53:38;99571.44;;;17.55;56.69
8039;BME280;4062;49.844;8.120;2022-09-23T00:55:45;99566.09;;;17.55;56.60
8039;BME280;4062;49.844;8.120;2022-09-23T00:57:46;99568.78;;;17.55;56.44
8039;BME280;4062;49.844;8.120;2022-09-23T00:59:49;99567.88;;;17.54;56.64
8039;BME280;4062;49.844;8.120;2022-09-23T01:01:52;99566.09;;;17.55;56.73
8039;BME280;4062;49.844;8.120;2022-09-23T01:03:56;99559.03;;;17.54;56.38
8039;BME280;4062;49.844;8.120;2022-09-23T01:05:58;99565.22;;;17.54;56.52
8039;BME280;4062;49.844;8.120;2022-09-23T01:07:59;99565.22;;;17.54;56.53
8039;BME280;4062;49.844;8.120;2022-09-23T01:10:02;99560.81;;;17.53;56.55
8039;BME280;4062;49.844;8.120;2022-09-23T01:17:50;99549.19;;;17.54;56.56
8039;BME280;4062;49.844;8.120;2022-09-23T01:22:21;99545.66;;;17.54;56.67
8039;BME280;4062;49.844;8.120;2022-09-23T01:24:47;99541.16;;;17.54;56.73
8039;BME280;4062;49.844;8.120;2022-09-23T01:27:28;99547.44;;;17.53;56.51
8039;BME280;4062;49.844;8.120;2022-09-23T01:34:48;99550.13;;;17.53;56.68
8039;BME280;4062;49.844;8.120;2022-09-23T01:39:41;99542.09;;;17.53;56.64
8039;BME280;4062;49.844;8.120;2022-09-23T01:42:04;99540.31;;;17.54;56.47
8039;BME280;4062;49.844;8.120;2022-09-23T01:44:28;99541.25;;;17.53;56.65
8039;BME280;4062;49.844;8.120;2022-09-23T01:46:58;99543.00;;;17.54;56.73
8039;BME280;4062;49.844;8.120;2022-09-23T01:49:45;99532.38;;;17.52;56.51
8039;BME280;4062;49.844;8.120;2022-09-23T01:52:17;99526.09;;;17.53;56.66
8039;BME280;4062;49.844;8.120;2022-09-23T01:54:38;99530.56;;;17.53;56.61
8039;BME280;4062;49.844;8.120;2022-09-23T01:56:55;99531.41;;;17.53;56.73
8039;BME280;4062;49.844;8.120;2022-09-23T01:59:11;99526.09;;;17.53;56.65
8039;BME280;4062;49.844;8.120;2022-09-23T02:01:20;99524.28;;;17.54;56.67
8039;BME280;4062;49.844;8.120;2022-09-23T02:04:33;99534.09;;;17.53;56.54
8039;BME280;4062;49.844;8.120;2022-09-23T02:06:30;99520.72;;;17.53;56.71
8039;BME280;4062;49.844;8.120;2022-09-23T02:08:58;99521.63;;;17.54;56.64
8039;BME280;4062;49.844;8.120;2022-09-23T02:11:11;99526.09;;;17.53;56.71
8039;BME280;4062;49.844;8.120;2022-09-23T02:13:27;99517.22;;;17.53;56.77
8039;BME280;4062;49.844;8.120;2022-09-23T02:15:35;99525.22;;;17.53;56.74
8039;BME280;4062;49.844;8.120;2022-09-23T02:17:49;99526.97;;;17.54;56.44
8039;BME280;4062;49.844;8.120;2022-09-23T02:20:01;99531.41;;;17.53;56.64
8039;BME280;4062;49.844;8.120;2022-09-23T02:22:14;99523.41;;;17.53;56.70
8039;BME280;4062;49.844;8.120;2022-09-23T02:24:27;99513.66;;;17.52;56.42
8039;BME280;4062;49.844;8.120;2022-09-23T02:27:03;99513.66;;;17.52;56.71
8039;BME280;4062;49.844;8.120;2022-09-23T02:29:23;99509.19;;;17.53;56.64
8039;BME280;4062;49.844;8.120;2022-09-23T02:34:16;99509.19;;;17.53;56.71
8039;BME280;4062;49.844;8.120;2022-09-23T02:36:45;99505.66;;;17.52;56.68
8039;BME280;4062;49.844;8.120;2022-09-23T02:38:58;99506.53;;;17.53;56.51
8039;BME280;4062;49.844;8.120;2022-09-23T02:41:21;99501.19;;;17.53;56.39
8039;BME280;4062;49.844;8.120;2022-09-23T02:43:38;99504.78;;;17.52;56.47
8039;BME280;4062;49.844;8.120;2022-09-23T02:45:42;99501.19;;;17.53;56.45
8039;BME280;4062;49.844;8.120;2022-09-23T02:47:50;99497.63;;;17.52;56.66
8039;BME280;4062;49.844;8.120;2022-09-23T02:49:52;99498.53;;;17.53;56.61
8039;BME280;4062;49.844;8.120;2022-09-23T02:52:02;99502.91;;;17.54;56.64
8039;BME280;4062;49.844;8.120;2022-09-23T02:54:07;99488.78;;;17.52;56.73
8039;BME280;4062;49.844;8.120;2022-09-23T02:56:19;99494.13;;;17.52;56.53
8039;BME280;4062;49.844;8.120;2022-09-23T02:58:20;99488.78;;;17.52;56.47
8039;BME280;4062;49.844;8.120;2022-09-23T03:00:21;99486.94;;;17.52;56.64
8039;BME280;4062;49.844;8.120;2022-09-23T03:02:59;99497.63;;;17.52;56.73
8039;BME280;4062;49.844;8.120;2022-09-23T03:05:30;99488.78;;;17.52;56.68
8039;BME280;4062;49.844;8.120;2022-09-23T03:07:56;99486.94;;;17.52;56.55
8039;BME280;4062;49.844;8.120;2022-09-23T03:15:39;99488.78;;;17.52;56.75
8039;BME280;4062;49.844;8.120;2022-09-23T03:18:02;99494.13;;;17.52;56.53
8039;BME280;4062;49.844;8.120;2022-09-23T03:20:28;99492.28;;;17.52;56.59
8039;BME280;4062;49.844;8.120;2022-09-23T03:22:41;99488.78;;;17.52;56.79
8039;BME280;4062;49.844;8.120;2022-09-23T03:24:44;99494.97;;;17.52;56.43
8039;BME280;4062;49.844;8.120;2022-09-23T03:26:47;99494.13;;;17.52;56.53
8039;BME280;4062;49.844;8.120;2022-09-23T03:28:49;99493.22;;;17.51;56.62
8039;BME280;4062;49.844;8.120;2022-09-23T03:30:52;99491.44;;;17.52;56.71
8039;BME280;4062;49.844;8.120;2022-09-23T03:32:55;99488.78;;;17.52;56.67
8039;BME280;4062;49.844;8.120;2022-09-23T03:35:00;99490.56;;;17.51;56.43
8039;BME280;4062;49.844;8.120;2022-09-23T03:37:09;99479.88;;;17.51;56.56
8039;BME280;4062;49.844;8.120;2022-09-23T03:39:31;99485.22;;;17.51;56.56
8039;BME280;4062;49.844;8.120;2022-09-23T03:41:46;99488.78;;;17.52;56.61
8039;BME280;4062;49.844;8.120;2022-09-23T03:43:50;99486.09;;;17.52;56.48
8039;BME280;4062;49.844;8.120;2022-09-23T03:45:53;99484.28;;;17.52;56.68
8039;BME280;4062;49.844;8.120;2022-09-23T03:47:57;99481.69;;;17.50;56.68
8039;BME280;4062;49.844;8.120;2022-09-23T03:49:57;99483.44;;;17.52;56.62
8039;BME280;4062;49.844;8.120;2022-09-23T03:51:58;99480.75;;;17.52;56.73
8039;BME280;4062;49.844;8.120;2022-09-23T03:53:59;99483.44;;;17.52;56.62
8039;BME280;4062;49.844;8.120;2022-09-23T03:56:00;99493.22;;;17.51;56.73
8039;BME280;4062;49.844;8.120;2022-09-23T03:58:01;99491.44;;;17.52;56.45
8039;BME280;4062;49.844;8.120;2022-09-23T04:00:06;99487.88;;;17.51;56.55
8039;BME280;4062;49.844;8.120;2022-09-23T04:02:07;99482.53;;;17.51;56.43
8039;BME280;4062;49.844;8.120;2022-09-23T04:04:09;99473.69;;;17.50;56.69
8039;BME280;4062;49.844;8.120;2022-09-23T04:06:09;99481.69;;;17.50;56.55
8039;BME280;4062;49.844;8.120;2022-09-23T04:08:10;99479.03;;;17.50;56.55
8039;BME280;4062;49.844;8.120;2022-09-23T04:10:11;99479.88;;;17.51;56.37
8039;BME280;4062;49.844;8.120;2022-09-23T04:12:14;99486.94;;;17.52;56.64
8039;BME280;4062;49.844;8.120;2022-09-23T04:14:16;99479.88;;;17.51;56.72
8039;BME280;4062;49.844;8.120;2022-09-23T04:16:17;99473.69;;;17.50;56.79
8039;BME280;4062;49.844;8.120;2022-09-23T04:18:18;99470.16;;;17.50;56.88
8039;BME280;4062;49.844;8.120;2022-09-23T04:20:21;99471.84;;;17.51;56.68
8039;BME280;4062;49.844;8.120;2022-09-23T04:22:22;99470.06;;;17.52;56.65
8039;BME280;4062;49.844;8.120;2022-09-23T04:24:23;99468.34;;;17.50;56.44
8039;BME280;4062;49.844;8.120;2022-09-23T04:26:23;99468.34;;;17.50;56.53
8039;BME280;4062;49.844;8.120;2022-09-23T04:28:24;99467.41;;;17.52;56.45
8039;BME280;4062;49.844;8.120;2022-09-23T04:30:25;99467.41;;;17.52;56.49
8039;BME280;4062;49.844;8.120;2022-09-23T04:32:25;99457.66;;;17.50;56.72
8039;BME280;4062;49.844;8.120;2022-09-23T04:34:26;99457.66;;;17.50;56.88
8039;BME280;4062;49.844;8.120;2022-09-23T04:36:27;99455.84;;;17.51;56.60
8039;BME280;4062;49.844;8.120;2022-09-23T04:38:29;99458.50;;;17.51;56.69
8039;BME280;4062;49.844;8.120;2022-09-23T04:40:30;99458.50;;;17.51;56.49
8039;BME280;4062;49.844;8.120;2022-09-23T04:42:31;99457.66;;;17.50;56.47
8039;BME280;4062;49.844;8.120;2022-09-23T04:44:31;99451.47;;;17.50;56.81
8039;BME280;4062;49.844;8.120;2022-09-23T04:46:34;99456.81;;;17.50;56.62
8039;BME280;4062;49.844;8.120;2022-09-23T04:48:36;99456.72;;;17.52;56.57
8039;BME280;4062;49.844;8.120;2022-09-23T04:50:37;99448.78;;;17.50;56.73
8039;BME280;4062;49.844;8.120;2022-09-23T04:52:38;99456.81;;;17.50;56.56
8039;BME280;4062;49.844;8.120;2022-09-23T04:54:39;99461.25;;;17.49;56.57
8039;BME280;4062;49.844;8.120;2022-09-23T04:56:41;99463.00;;;17.50;56.53
8039;BME280;4062;49.844;8.120;2022-09-23T04:58:42;99465.66;;;17.50;56.65
8039;BME280;4062;49.844;8.120;2022-09-23T05:00:43;99463.00;;;17.50;56.50
8039;BME280;4062;49.844;8.120;2022-09-23T05:02:45;99465.66;;;17.50;56.60
8039;BME280;4062;49.844;8.120;2022-09-23T05:04:47;99460.31;;;17.50;56.57
8039;BME280;4062;49.844;8.120;2022-09-23T05:06:47;99464.81;;;17.50;56.67
8039;BME280;4062;49.844;8.120;2022-09-23T05:08:54;99472.84;;;17.50;56.63
8039;BME280;4062;49.844;8.120;2022-09-23T05:10:57;99467.50;;;17.50;56.67
8039;BME280;4062;49.844;8.120;2022-09-23T05:12:58;99471.84;;;17.51;56.77
8039;BME280;4062;49.844;8.120;2022-09-23T05:14:59;99473.69;;;17.50;56.86
8039;BME280;4062;49.844;8.120;2022-09-23T05:16:59;99479.03;;;17.50;56.46
8039;BME280;4062;49.844;8.120;2022-09-23T05:19:00;99476.34;;;17.50;56.61
8039;BME280;4062;49.844;8.120;2022-09-23T05:21:02;99477.28;;;17.49;56.73
8039;BME280;4062;49.844;8.120;2022-09-23T05:23:03;99472.84;;;17.50;56.69
8039;BME280;4062;49.844;8.120;2022-09-23T05:25:04;99473.78;;;17.49;56.58
8039;BME280;4062;49.844;8.120;2022-09-23T05:27:05;99475.56;;;17.48;56.45
8039;BME280;4062;49.844;8.120;2022-09-23T05:29:07;99472.84;;;17.50;56.55
8039;BME280;4062;49.844;8.120;2022-09-23T05:31:11;99475.50;;;17.50;56.63
8039;BME280;4062;49.844;8.120;2022-09-23T05:33:14;99474.63;;;17.49;56.85
8039;BME280;4062;49.844;8.120;2022-09-23T05:35:14;99479.13;;;17.49;56.72
8039;BME280;4062;49.844;8.120;2022-09-23T05:37:15;99483.53;;;17.50;56.55
8039;BME280;4062;49.844;8.120;2022-09-23T05:39:16;99486.19;;;17.50;56.87
8039;BME280;4062;49.844;8.120;2022-09-23T05:41:20;99479.13;;;17.49;56.69
8039;BME280;4062;49.844;8.120;2022-09-23T05:43:23;99480.84;;;17.50;56.61
8039;BME280;4062;49.844;8.120;2022-09-23T05:45:24;99479.97;;;17.49;56.66
8039;BME280;4062;49.844;8.120;2022-09-23T05:47:25;99482.63;;;17.49;56.80
8039;BME280;4062;49.844;8.120;2022-09-23T05:49:25;99485.31;;;17.49;56.77
8039;BME280;4062;49.844;8.120;2022-09-23T05:51:27;99479.97;;;17.49;56.57
8039;BME280;4062;49.844;8.120;2022-09-23T05:53:29;99487.13;;;17.49;56.54
8039;BME280;4062;49.844;8.120;2022-09-23T05:55:30;99481.78;;;17.49;56.75
8039;BME280;4062;49.844;8.120;2022-09-23T05:57:31;99479.97;;;17.49;56.57
8039;BME280;4062;49.844;8.120;2022-09-23T05:59:32;99479.97;;;17.49;56.76
8039;BME280;4062;49.844;8.120;2022-09-23T06:01:34;99479.97;;;17.49;56.62
8039;BME280;4062;49.844;8.120;2022-09-23T06:03:36;99470.22;;;17.48;56.51
8039;BME280;4062;49.844;8.120;2022-09-23T06:05:37;99471.94;;;17.49;56.57
8039;BME280;4062;49.844;8.120;2022-09-23T06:07:37;99471.09;;;17.49;56.63
8039;BME280;4062;49.844;8.120;2022-09-23T06:09:38;99467.50;;;17.50;56.53
8039;BME280;4062;49.844;8.120;2022-09-23T06:11:40;99462.22;;;17.48;56.75
8039;BME280;4062;49.844;8.120;2022-09-23T06:13:41;99464.03;;;17.48;56.59
8039;BME280;4062;49.844;8.120;2022-09-23T06:15:42;99475.50;;;17.50;56.64
8039;BME280;4062;49.844;8.120;2022-09-23T06:17:48;99468.44;;;17.49;56.54
8039;BME280;4062;49.844;8.120;2022-09-23T06:19:49;99468.44;;;17.49;56.48
8039;BME280;4062;49.844;8.120;2022-09-23T06:21:50;99471.09;;;17.49;56.75
8039;BME280;4062;49.844;8.120;2022-09-23T06:23:51;99471.94;;;17.49;56.79
8039;BME280;4062;49.844;8.120;2022-09-23T06:25:51;99468.44;;;17.49;56.67
8039;BME280;4062;49.844;8.120;2022-09-23T06:27:53;99465.75;;;17.49;56.64
8039;BME280;4062;49.844;8.120;2022-09-23T06:29:54;99468.44;;;17.49;56.73
8039;BME280;4062;49.844;8.120;2022-09-23T06:31:55;99466.59;;;17.49;56.57
8039;BME280;4062;49.844;8.120;2022-09-23T06:33:58;99466.69;;;17.48;56.62
8039;BME280;4062;49.844;8.120;2022-09-23T06:36:02;99465.75;;;17.49;56.46
8039;BME280;4062;49.844;8.120;2022-09-23T06:38:04;99466.69;;;17.48;56.43
8039;BME280;4062;49.844;8.120;2022-09-23T06:40:05;99465.75;;;17.49;56.75
8039;BME280;4062;49.844;8.120;2022-09-23T06:42:06;99466.59;;;17.49;56.75
8039;BME280;4062;49.844;8.120;2022-09-23T06:44:07;99464.03;;;17.48;56.51
8039;BME280;4062;49.844;8.120;2022-09-23T06:46:08;99474.63;;;17.49;56.75
8039;BME280;4062;49.844;8.120;2022-09-23T06:48:12;99464.88;;;17.48;56.47
8039;BME280;4062;49.844;8.120;2022-09-23T06:50:13;99471.94;;;17.49;56.64
8039;BME280;4062;49.844;8.120;2022-09-23T06:52:14;99471.94;;;17.49;56.60
8039;BME280;4062;49.844;8.120;2022-09-23T06:54:14;99473.78;;;17.49;56.69
8039;BME280;4062;49.844;8.120;2022-09-23T06:56:16;99471.09;;;17.49;56.55
8039;BME280;4062;49.844;8.120;2022-09-23T06:58:17;99466.59;;;17.49;56.50
8039;BME280;4062;49.844;8.120;2022-09-23T07:00:18;99471.09;;;17.49;56.57
8039;BME280;4062;49.844;8.120;2022-09-23T07:02:19;99471.09;;;17.49;56.63
8039;BME280;4062;49.844;8.120;2022-09-23T07:04:19;99470.16;;;17.50;56.51
8039;BME280;4062;49.844;8.120;2022-09-23T07:06:20;99471.09;;;17.49;56.62
8039;BME280;4062;49.844;8.120;2022-09-23T07:08:22;99478.19;;;17.50;56.56
8039;BME280;4062;49.844;8.120;2022-09-23T07:10:23;99471.09;;;17.49;56.74
8039;BME280;4062;49.844;8.120;2022-09-23T07:12:23;99471.09;;;17.49;56.79
8039;BME280;4062;49.844;8.120;2022-09-23T07:14:24;99470.22;;;17.48;56.60
8039;BME280;4062;49.844;8.120;2022-09-23T07:16:25;99464.88;;;17.48;56.68
8039;BME280;4062;49.844;8.120;2022-09-23T07:18:28;99472.88;;;17.48;56.49
8039;BME280;4062;49.844;8.120;2022-09-23T07:20:29;99471.09;;;17.49;56.55
8039;BME280;4062;49.844;8.120;2022-09-23T07:22:30;99471.09;;;17.49;56.53
8039;BME280;4062;49.844;8.120;2022-09-23T07:24:30;99472.88;;;17.48;56.64
8039;BME280;4062;49.844;8.120;2022-09-23T07:26:32;99473.78;;;17.49;56.42
8039;BME280;4062;49.844;8.120;2022-09-23T07:28:34;99468.44;;;17.49;56.44
8039;BME280;4062;49.844;8.120;2022-09-23T07:30:40;99477.28;;;17.49;56.57
8039;BME280;4062;49.844;8.120;2022-09-23T07:32:41;99479.97;;;17.49;56.55
8039;BME280;4062;49.844;8.120;2022-09-23T07:34:42;99477.28;;;17.49;56.77
8039;BME280;4062;49.844;8.120;2022-09-23T07:36:43;99486.25;;;17.48;56.51
8039;BME280;4062;49.844;8.120;2022-09-23T07:38:45;99488.91;;;17.48;56.36
8039;BME280;4062;49.844;8.120;2022-09-23T07:40:46;99487.97;;;17.49;56.68
8039;BME280;4062;49.844;8.120;2022-09-23T07:42:48;99484.47;;;17.49;56.73
8039;BME280;4062;49.844;8.120;2022-09-23T07:44:48;99487.97;;;17.49;56.44
8039;BME280;4062;49.844;8.120;2022-09-23T07:46:49;99485.31;;;17.49;56.75
8039;BME280;4062;49.844;8.120;2022-09-23T07:48:50;99490.66;;;17.49;56.48
8039;BME280;4062;49.844;8.120;2022-09-23T07:50:52;99492.47;;;17.49;56.48
8039;BME280;4062;49.844;8.120;2022-09-23T07:52:53;99493.31;;;17.49;56.70
8039;BME280;4062;49.844;8.120;2022-09-23T07:54:53;99492.47;;;17.49;56.81
8039;BME280;4062;49.844;8.120;2022-09-23T07:56:54;99490.66;;;17.49;56.49
8039;BME280;4062;49.844;8.120;2022-09-23T07:58:56;99488.88;;;17.50;56.53
8039;BME280;4062;49.844;8.120;2022-09-23T08:01:08;99493.31;;;17.49;56.74
8039;BME280;4062;49.844;8.120;2022-09-23T08:03:09;99494.19;;;17.50;56.64
8039;BME280;4062;49.844;8.120;2022-09-23T08:05:10;99499.53;;;17.50;56.55
8039;BME280;4062;49.844;8.120;2022-09-23T08:07:12;99499.53;;;17.50;56.64
8039;BME280;4062;49.844;8.120;2022-09-23T08:09:14;99496.00;;;17.49;56.55
8039;BME280;4062;49.844;8.120;2022-09-23T08:11:15;99496.88;;;17.50;56.48
8039;BME280;4062;49.844;8.120;2022-09-23T08:13:16;99500.41;;;17.50;56.68
8039;BME280;4062;49.844;8.120;2022-09-23T08:15:16;99497.72;;;17.50;56.81
8039;BME280;4062;49.844;8.120;2022-09-23T08:17:17;99495.06;;;17.50;56.62
8039;BME280;4062;49.844;8.120;2022-09-23T08:19:18;99495.06;;;17.50;56.61
8039;BME280;4062;49.844;8.120;2022-09-23T08:21:20;99490.56;;;17.51;56.62
8039;BME280;4062;49.844;8.120;2022-09-23T08:23:21;99506.59;;;17.51;56.42
8039;BME280;4062;49.844;8.120;2022-09-23T08:25:22;99497.72;;;17.50;56.57
8039;BME280;4062;49.844;8.120;2022-09-23T08:27:23;99494.19;;;17.50;56.73
8039;BME280;4062;49.844;8.120;2022-09-23T08:29:24;99496.88;;;17.50;56.73
8039;BME280;4062;49.844;8.120;2022-09-23T08:31:26;99496.00;;;17.49;56.56
8039;BME280;4062;49.844;8.120;2022-09-23T08:33:26;99490.66;;;17.49;56.53
8039;BME280;4062;49.844;8.120;2022-09-23T08:35:28;99487.13;;;17.49;56.48
8039;BME280;4062;49.844;8.120;2022-09-23T08:37:29;99481.78;;;17.49;56.55
8039;BME280;4062;49.844;8.120;2022-09-23T08:39:29;99481.69;;;17.50;56.53
8039;BME280;4062;49.844;8.120;2022-09-23T08:42:19;99481.69;;;17.50;56.66
8039;BME280;4062;49.844;8.120;2022-09-23T08:44:49;99485.22;;;17.51;56.68
8039;BME280;4062;49.844;8.120;2022-09-23T08:49:29;99479.81;;;17.53;56.47
8039;BME280;4062;49.844;8.120;2022-09-23T08:51:38;99481.53;;;17.54;56.66
8039;BME280;4062;49.844;8.120;2022-09-23T08:53:42;99478.00;;;17.53;56.48
8039;BME280;4062;49.844;8.120;2022-09-23T08:55:47;99473.53;;;17.54;56.61
8039;BME280;4062;49.844;8.120;2022-09-23T08:58:23;99478.00;;;17.53;56.64
8039;BME280;4062;49.844;8.120;2022-09-23T09:00:39;99472.66;;;17.53;56.50
8039;BME280;4062;49.844;8.120;2022-09-23T09:02:41;99474.38;;;17.54;56.41
8039;BME280;4062;49.844;8.120;2022-09-23T09:04:46;99477.94;;;17.55;56.34
8039;BME280;4062;49.844;8.120;2022-09-23T09:09:36;99491.19;;;17.56;56.43
8039;BME280;4062;49.844;8.120;2022-09-23T09:11:42;99482.31;;;17.56;56.32
8039;BME280;4062;49.844;8.120;2022-09-23T09:13:58;99481.38;;;17.57;56.37
8039;BME280;4062;49.844;8.120;2022-09-23T09:16:29;99478.69;;;17.57;56.05
8039;BME280;4062;49.844;8.120;2022-09-23T09:18:55;99474.22;;;17.57;56.05
8039;BME280;4062;49.844;8.120;2022-09-23T09:21:10;99475.09;;;17.58;56.15
8039;BME280;4062;49.844;8.120;2022-09-23T09:24:06;99469.69;;;17.59;56.28
8039;BME280;4062;49.844;8.120;2022-09-23T09:25:56;99464.34;;;17.59;55.99
8039;BME280;4062;49.844;8.120;2022-09-23T09:27:58;99458.91;;;17.61;56.01
8039;BME280;4062;49.844;8.120;2022-09-23T09:30:00;99461.59;;;17.61;56.28
8039;BME280;4062;49.844;8.120;2022-09-23T09:32:37;99453.56;;;17.61;56.08
8039;BME280;4062;49.844;8.120;2022-09-23T09:34:56;99450.00;;;17.60;56.15
8039;BME280;4062;49.844;8.120;2022-09-23T09:39:26;99453.56;;;17.61;56.07
8039;BME280;4062;49.844;8.120;2022-09-23T09:41:28;99453.56;;;17.61;56.14
8039;BME280;4062;49.844;8.120;2022-09-23T09:43:31;99449.94;;;17.62;56.29
8039;BME280;4062;49.844;8.120;2022-09-23T09:46:03;99446.41;;;17.61;56.03
8039;BME280;4062;49.844;8.120;2022-09-23T09:48:16;99450.81;;;17.62;56.19
8039;BME280;4062;49.844;8.120;2022-09-23T09:52:48;99441.84;;;17.63;56.08
8039;BME280;4062;49.844;8.120;2022-09-23T09:57:28;99439.16;;;17.63;56.18
8039;BME280;4062;49.844;8.120;2022-09-23T09:59:31;99440.06;;;17.64;56.22
8039;BME280;4062;49.844;8.120;2022-09-23T10:01:33;99431.16;;;17.63;56.28
8039;BME280;4062;49.844;8.120;2022-09-23T10:03:42;99429.38;;;17.64;56.09
8039;BME280;4062;49.844;8.120;2022-09-23T10:07:44;99436.41;;;17.65;55.93
8039;BME280;4062;49.844;8.120;2022-09-23T10:09:49;99433.75;;;17.65;56.00
8039;BME280;4062;49.844;8.120;2022-09-23T10:12:23;99428.41;;;17.65;55.99
8039;BME280;4062;49.844;8.120;2022-09-23T10:14:24;99425.72;;;17.65;56.39
8039;BME280;4062;49.844;8.120;2022-09-23T10:16:27;99423.06;;;17.65;55.98
8039;BME280;4062;49.844;8.120;2022-09-23T10:18:31;99429.28;;;17.65;55.98
8039;BME280;4062;49.844;8.120;2022-09-23T10:20:35;99428.41;;;17.65;56.06
8039;BME280;4062;49.844;8.120;2022-09-23T10:22:40;99430.13;;;17.66;56.10
8039;BME280;4062;49.844;8.120;2022-09-23T10:24:57;99425.72;;;17.65;56.12
8039;BME280;4062;49.844;8.120;2022-09-23T10:27:05;99424.88;;;17.64;55.95
8039;BME280;4062;49.844;8.120;2022-09-23T10:29:37;99431.06;;;17.65;55.92
8039;BME280;4062;49.844;8.120;2022-09-23T10:31:39;99422.19;;;17.64;56.02
8039;BME280;4062;49.844;8.120;2022-09-23T10:33:48;99422.28;;;17.63;56.15
8039;BME280;4062;49.844;8.120;2022-09-23T10:35:53;99427.53;;;17.64;56.12
8039;BME280;4062;49.844;8.120;2022-09-23T10:37:59;99415.13;;;17.63;56.06
8039;BME280;4062;49.844;8.120;2022-09-23T10:40:00;99407.13;;;17.63;56.06
8039;BME280;4062;49.844;8.120;2022-09-23T10:45:25;99406.25;;;17.63;56.08
8039;BME280;4062;49.844;8.120;2022-09-23T10:50:48;99408.94;;;17.63;56.01
8039;BME280;4062;49.844;8.120;2022-09-23T10:55:50;99406.25;;;17.63;55.93
8039;BME280;4062;49.844;8.120;2022-09-23T11:00:40;99406.25;;;17.63;56.02
8039;BME280;4062;49.844;8.120;2022-09-23T11:08:36;99393.84;;;17.62;55.93
8039;BME280;4062;49.844;8.120;2022-09-23T11:11:08;99391.19;;;17.62;55.93
8039;BME280;4062;49.844;8.120;2022-09-23T11:13:48;99380.50;;;17.62;56.01
8039;BME280;4062;49.844;8.120;2022-09-23T11:16:20;99389.44;;;17.61;56.23
8039;BME280;4062;49.844;8.120;2022-09-23T11:18:46;99384.09;;;17.61;56.26
8039;BME280;4062;49.844;8.120;2022-09-23T11:29:14;99390.28;;;17.61;56.04
8039;BME280;4062;49.844;8.120;2022-09-23T11:32:00;99378.75;;;17.61;56.41
8039;BME280;4062;49.844;8.120;2022-09-23T11:37:01;99373.50;;;17.59;56.15
8039;BME280;4062;49.844;8.120;2022-09-23T11:39:41;99370.75;;;17.61;56.06
8039;BME280;4062;49.844;8.120;2022-09-23T11:41:46;99366.34;;;17.60;56.35
8039;BME280;4062;49.844;8.120;2022-09-23T11:43:55;99357.47;;;17.59;56.38
8039;BME280;4062;49.844;8.120;2022-09-23T11:46:22;99361.00;;;17.60;56.18
8039;BME280;4062;49.844;8.120;2022-09-23T11:48:54;99350.31;;;17.60;56.24
8039;BME280;4062;49.844;8.120;2022-09-23T11:51:11;99349.47;;;17.59;56.20
8039;BME280;4062;49.844;8.120;2022-09-23T11:56:12;99352.03;;;17.61;56.33
8039;BME280;4062;49.844;8.120;2022-09-23T11:58:22;99343.25;;;17.59;56.22
8039;BME280;4062;49.844;8.120;2022-09-23T12:00:32;99345.91;;;17.59;56.14
8039;BME280;4062;49.844;8.120;2022-09-23T12:05:22;99341.44;;;17.59;55.97
8039;BME280;4062;49.844;8.120;2022-09-23T12:08:04;99333.44;;;17.59;56.35
8039;BME280;4062;49.844;8.120;2022-09-23T12:10:09;99339.63;;;17.60;56.15
8039;BME280;4062;49.844;8.120;2022-09-23T12:20:20;99329.03;;;17.58;56.18
8039;BME280;4062;49.844;8.120;2022-09-23T12:29:26;99326.38;;;17.58;56.24
8039;BME280;4062;49.844;8.120;2022-09-23T12:31:29;99318.34;;;17.58;56.29
8039;BME280;4062;49.844;8.120;2022-09-23T12:33:32;99317.47;;;17.58;56.17
8039;BME280;4062;49.844;8.120;2022-09-23T12:35:41;99309.47;;;17.58;56.15
8039;BME280;4062;49.844;8.120;2022-09-23T12:37:44;99319.19;;;17.59;56.35
8039;BME280;4062;49.844;8.120;2022-09-23T12:39:45;99314.81;;;17.58;56.57
8039;BME280;4062;49.844;8.120;2022-09-23T12:41:47;99313.84;;;17.59;56.25
8039;BME280;4062;49.844;8.120;2022-09-23T12:44:11;99321.88;;;17.59;56.33
8039;BME280;4062;49.844;8.120;2022-09-23T12:46:26;99317.47;;;17.58;56.38
8039;BME280;4062;49.844;8.120;2022-09-23T12:48:56;99314.81;;;17.58;56.43
8039;BME280;4062;49.844;8.120;2022-09-23T12:51:11;99312.13;;;17.58;56.08
8039;BME280;4062;49.844;8.120;2022-09-23T13:02:32;99302.31;;;17.58;56.35
8039;BME280;4062;49.844;8.120;2022-09-23T13:04:53;99304.13;;;17.58;56.34
8039;BME280;4062;49.844;8.120;2022-09-23T13:07:26;99298.78;;;17.58;56.23
8039;BME280;4062;49.844;8.120;2022-09-23T13:09:38;99302.31;;;17.58;56.19
8039;BME280;4062;49.844;8.120;2022-09-23T13:11:42;99296.09;;;17.58;56.16